sensor_id;sensor_type;location;lat;lon;timestamp;P1;durP1;ratioP1;P2;durP2;ratioP2
14396;SDS011;50653;47.810;13.022;2023-12-20T00:00:57;0.70;;;0.60;;
14396;SDS011;50653;47.810;13.022;2023-12-20T00:03:22;0.80;;;0.60;;
14396;SDS011;50653;47.810;13.022;2023-12-20T00:05:49;0.73;;;0.60;;
14396;SDS011;50653;47.810;13.022;2023-12-20T00:08:15;0.80;;;0.60;;
14396;SDS011;50653;47.810;13.022;2023-12-20T00:10:41;0.97;;;0.90;;
14396;SDS011;50653;47.810;13.022;2023-12-20T00:13:07;1.70;;;1.17;;
14396;SDS011;50653;47.810;13.022;2023-12-20T00:15:34;1.90;;;1.10;;
14396;SDS011;50653;47.810;13.022;2023-12-20T00:18:00;1.03;;;0.93;;
14396;SDS011;50653;47.810;13.022;2023-12-20T00:20:26;1.10;;;1.00;;
14396;SDS011;50653;47.810;13.022;2023-12-20T00:22:54;1.13;;;1.00;;
14396;SDS011;50653;47.810;13.022;2023-12-20T00:25:21;1.40;;;1.30;;
14396;SDS011;50653;47.810;13.022;2023-12-20T00:27:46;1.20;;;1.10;;
14396;SDS011;50653;47.810;13.022;2023-12-20T00:30:12;1.60;;;1.50;;
14396;SDS011;50653;47.810;13.022;2023-12-20T00:32:38;1.90;;;1.10;;
14396;SDS011;50653;47.810;13.022;2023-12-20T00:35:04;1.00;;;0.80;;
14396;SDS011;50653;47.810;13.022;2023-12-20T00:37:30;1.50;;;1.40;;
14396;SDS011;50653;47.810;13.022;2023-12-20T00:39:55;2.03;;;1.50;;
14396;SDS011;50653;47.810;13.022;2023-12-20T00:42:21;1.67;;;1.10;;
14396;SDS011;50653;47.810;13.022;2023-12-20T00:44:47;1.67;;;1.10;;
14396;SDS011;50653;47.810;13.022;2023-12-20T00:47:12;1.23;;;1.13;;
14396;SDS011;50653;47.810;13.022;2023-12-20T00:49:38;0.83;;;0.80;;
14396;SDS011;50653;47.810;13.022;2023-12-20T00:52:04;0.70;;;0.67;;
14396;SDS011;50653;47.810;13.022;2023-12-20T00:54:30;0.77;;;0.73;;
14396;SDS011;50653;47.810;13.022;2023-12-20T00:56:56;1.10;;;0.70;;
14396;SDS011;50653;47.810;13.022;2023-12-20T00:59:21;1.43;;;0.97;;
14396;SDS011;50653;47.810;13.022;2023-12-20T01:01:47;0.70;;;0.53;;
14396;SDS011;50653;47.810;13.022;2023-12-20T01:04:13;1.20;;;1.10;;
14396;SDS011;50653;47.810;13.022;2023-12-20T01:06:38;1.07;;;0.87;;
14396;SDS011;50653;47.810;13.022;2023-12-20T01:09:04;2.00;;;1.53;;
14396;SDS011;50653;47.810;13.022;2023-12-20T01:11:30;1.23;;;1.13;;
14396;SDS011;50653;47.810;13.022;2023-12-20T01:13:55;1.20;;;0.80;;
14396;SDS011;50653;47.810;13.022;2023-12-20T01:16:21;1.40;;;0.70;;
14396;SDS011;50653;47.810;13.022;2023-12-20T01:18:47;1.00;;;0.80;;
14396;SDS011;50653;47.810;13.022;2023-12-20T01:21:12;1.07;;;0.97;;
14396;SDS011;50653;47.810;13.022;2023-12-20T01:23:38;1.10;;;0.90;;
14396;SDS011;50653;47.810;13.022;2023-12-20T01:26:04;0.70;;;0.60;;
14396;SDS011;50653;47.810;13.022;2023-12-20T01:28:30;0.70;;;0.63;;
14396;SDS011;50653;47.810;13.022;2023-12-20T01:30:56;1.00;;;0.70;;
14396;SDS011;50653;47.810;13.022;2023-12-20T01:33:22;0.80;;;0.70;;
14396;SDS011;50653;47.810;13.022;2023-12-20T01:35:48;0.97;;;0.87;;
14396;SDS011;50653;47.810;13.022;2023-12-20T01:38:14;0.80;;;0.70;;
14396;SDS011;50653;47.810;13.022;2023-12-20T01:40:43;0.80;;;0.60;;
14396;SDS011;50653;47.810;13.022;2023-12-20T01:43:09;0.80;;;0.80;;
14396;SDS011;50653;47.810;13.022;2023-12-20T01:45:37;0.90;;;0.77;;
14396;SDS011;50653;47.810;13.022;2023-12-20T01:48:03;0.90;;;0.70;;
14396;SDS011;50653;47.810;13.022;2023-12-20T01:50:31;0.90;;;0.70;;
14396;SDS011;50653;47.810;13.022;2023-12-20T01:52:57;1.00;;;0.90;;
14396;SDS011;50653;47.810;13.022;2023-12-20T01:55:25;0.70;;;0.60;;
14396;SDS011;50653;47.810;13.022;2023-12-20T01:57:54;0.87;;;0.70;;
14396;SDS011;50653;47.810;13.022;2023-12-20T02:00:20;0.70;;;0.70;;
14396;SDS011;50653;47.810;13.022;2023-12-20T02:02:48;1.03;;;0.77;;
14396;SDS011;50653;47.810;13.022;2023-12-20T02:05:17;1.67;;;1.03;;
14396;SDS011;50653;47.810;13.022;2023-12-20T02:07:43;0.80;;;0.60;;
14396;SDS011;50653;47.810;13.022;2023-12-20T02:10:09;0.97;;;0.70;;
14396;SDS011;50653;47.810;13.022;2023-12-20T02:12:35;0.60;;;0.50;;
14396;SDS011;50653;47.810;13.022;2023-12-20T02:15:01;0.60;;;0.60;;
14396;SDS011;50653;47.810;13.022;2023-12-20T02:17:27;0.90;;;0.60;;
14396;SDS011;50653;47.810;13.022;2023-12-20T02:19:53;0.70;;;0.60;;
14396;SDS011;50653;47.810;13.022;2023-12-20T02:22:19;1.07;;;0.97;;
14396;SDS011;50653;47.810;13.022;2023-12-20T02:24:45;0.70;;;0.60;;
14396;SDS011;50653;47.810;13.022;2023-12-20T02:27:10;0.83;;;0.70;;
14396;SDS011;50653;47.810;13.022;2023-12-20T02:29:37;1.00;;;0.87;;
14396;SDS011;50653;47.810;13.022;2023-12-20T02:32:03;0.80;;;0.70;;
14396;SDS011;50653;47.810;13.022;2023-12-20T02:34:28;0.90;;;0.50;;
14396;SDS011;50653;47.810;13.022;2023-12-20T02:36:54;0.70;;;0.60;;
14396;SDS011;50653;47.810;13.022;2023-12-20T02:39:20;0.80;;;0.70;;
14396;SDS011;50653;47.810;13.022;2023-12-20T02:41:47;1.00;;;0.90;;
14396;SDS011;50653;47.810;13.022;2023-12-20T02:44:13;1.27;;;1.03;;
14396;SDS011;50653;47.810;13.022;2023-12-20T02:46:39;2.70;;;1.10;;
14396;SDS011;50653;47.810;13.022;2023-12-20T02:49:05;0.93;;;0.93;;
14396;SDS011;50653;47.810;13.022;2023-12-20T02:51:31;0.73;;;0.60;;
14396;SDS011;50653;47.810;13.022;2023-12-20T02:53:57;2.43;;;1.20;;
14396;SDS011;50653;47.810;13.022;2023-12-20T02:56:23;1.13;;;1.03;;
14396;SDS011;50653;47.810;13.022;2023-12-20T02:58:48;1.27;;;0.80;;
14396;SDS011;50653;47.810;13.022;2023-12-20T03:01:14;1.87;;;1.63;;
14396;SDS011;50653;47.810;13.022;2023-12-20T03:03:40;1.13;;;1.03;;
14396;SDS011;50653;47.810;13.022;2023-12-20T03:06:05;1.77;;;1.20;;
14396;SDS011;50653;47.810;13.022;2023-12-20T03:08:31;1.57;;;0.70;;
14396;SDS011;50653;47.810;13.022;2023-12-20T03:10:58;1.13;;;0.80;;
14396;SDS011;50653;47.810;13.022;2023-12-20T03:13:24;2.07;;;1.70;;
14396;SDS011;50653;47.810;13.022;2023-12-20T03:15:50;1.37;;;1.10;;
14396;SDS011;50653;47.810;13.022;2023-12-20T03:18:16;1.10;;;0.90;;
14396;SDS011;50653;47.810;13.022;2023-12-20T03:20:43;1.10;;;1.00;;
14396;SDS011;50653;47.810;13.022;2023-12-20T03:23:09;0.70;;;0.63;;
14396;SDS011;50653;47.810;13.022;2023-12-20T03:25:34;0.83;;;0.83;;
14396;SDS011;50653;47.810;13.022;2023-12-20T03:28:00;0.93;;;0.80;;
14396;SDS011;50653;47.810;13.022;2023-12-20T03:30:26;1.10;;;1.00;;
14396;SDS011;50653;47.810;13.022;2023-12-20T03:32:51;2.60;;;1.03;;
14396;SDS011;50653;47.810;13.022;2023-12-20T03:35:17;1.00;;;0.80;;
14396;SDS011;50653;47.810;13.022;2023-12-20T03:37:43;1.03;;;0.93;;
14396;SDS011;50653;47.810;13.022;2023-12-20T03:40:10;0.70;;;0.60;;
14396;SDS011;50653;47.810;13.022;2023-12-20T03:42:36;1.63;;;0.90;;
14396;SDS011;50653;47.810;13.022;2023-12-20T03:45:01;0.80;;;0.60;;
14396;SDS011;50653;47.810;13.022;2023-12-20T03:47:27;0.70;;;0.53;;
14396;SDS011;50653;47.810;13.022;2023-12-20T03:49:53;0.70;;;0.70;;
14396;SDS011;50653;47.810;13.022;2023-12-20T03:52:18;0.80;;;0.57;;
14396;SDS011;50653;47.810;13.022;2023-12-20T03:54:44;0.90;;;0.60;;
14396;SDS011;50653;47.810;13.022;2023-12-20T03:57:10;0.70;;;0.60;;
14396;SDS011;50653;47.810;13.022;2023-12-20T03:59:36;0.97;;;0.60;;
14396;SDS011;50653;47.810;13.022;2023-12-20T04:02:03;0.77;;;0.50;;
14396;SDS011;50653;47.810;13.022;2023-12-20T04:04:29;0.80;;;0.60;;
14396;SDS011;50653;47.810;13.022;2023-12-20T04:06:54;0.83;;;0.60;;
14396;SDS011;50653;47.810;13.022;2023-12-20T04:09:20;0.60;;;0.50;;
14396;SDS011;50653;47.810;13.022;2023-12-20T04:11:46;0.70;;;0.60;;
14396;SDS011;50653;47.810;13.022;2023-12-20T04:14:11;0.73;;;0.70;;
14396;SDS011;50653;47.810;13.022;2023-12-20T04:16:37;0.93;;;0.70;;
14396;SDS011;50653;47.810;13.022;2023-12-20T04:19:04;0.70;;;0.67;;
14396;SDS011;50653;47.810;13.022;2023-12-20T04:21:29;1.17;;;0.83;;
14396;SDS011;50653;47.810;13.022;2023-12-20T04:23:55;0.80;;;0.67;;
14396;SDS011;50653;47.810;13.022;2023-12-20T04:26:21;0.90;;;0.67;;
14396;SDS011;50653;47.810;13.022;2023-12-20T04:28:47;0.60;;;0.60;;
14396;SDS011;50653;47.810;13.022;2023-12-20T04:31:12;1.43;;;0.87;;
14396;SDS011;50653;47.810;13.022;2023-12-20T04:33:38;0.70;;;0.67;;
14396;SDS011;50653;47.810;13.022;2023-12-20T04:36:04;0.90;;;0.80;;
14396;SDS011;50653;47.810;13.022;2023-12-20T04:38:30;1.00;;;0.77;;
14396;SDS011;50653;47.810;13.022;2023-12-20T04:40:56;0.63;;;0.50;;
14396;SDS011;50653;47.810;13.022;2023-12-20T04:43:21;1.17;;;1.03;;
14396;SDS011;50653;47.810;13.022;2023-12-20T04:45:48;1.10;;;1.00;;
14396;SDS011;50653;47.810;13.022;2023-12-20T04:48:14;0.80;;;0.80;;
14396;SDS011;50653;47.810;13.022;2023-12-20T04:50:39;1.37;;;1.10;;
14396;SDS011;50653;47.810;13.022;2023-12-20T04:53:05;0.97;;;0.70;;
14396;SDS011;50653;47.810;13.022;2023-12-20T04:55:31;0.83;;;0.67;;
14396;SDS011;50653;47.810;13.022;2023-12-20T04:57:56;0.70;;;0.60;;
14396;SDS011;50653;47.810;13.022;2023-12-20T05:00:22;1.13;;;0.67;;
14396;SDS011;50653;47.810;13.022;2023-12-20T05:02:48;0.80;;;0.70;;
14396;SDS011;50653;47.810;13.022;2023-12-20T05:05:13;1.20;;;0.60;;
14396;SDS011;50653;47.810;13.022;2023-12-20T05:07:40;1.43;;;0.60;;
14396;SDS011;50653;47.810;13.022;2023-12-20T05:10:06;0.80;;;0.70;;
14396;SDS011;50653;47.810;13.022;2023-12-20T05:12:35;0.60;;;0.50;;
14396;SDS011;50653;47.810;13.022;2023-12-20T05:15:01;0.80;;;0.60;;
14396;SDS011;50653;47.810;13.022;2023-12-20T05:17:26;0.70;;;0.50;;
14396;SDS011;50653;47.810;13.022;2023-12-20T05:19:52;0.70;;;0.53;;
14396;SDS011;50653;47.810;13.022;2023-12-20T05:22:21;0.80;;;0.63;;
14396;SDS011;50653;47.810;13.022;2023-12-20T05:24:46;0.70;;;0.50;;
14396;SDS011;50653;47.810;13.022;2023-12-20T05:27:12;1.00;;;0.80;;
14396;SDS011;50653;47.810;13.022;2023-12-20T05:29:38;1.13;;;0.80;;
14396;SDS011;50653;47.810;13.022;2023-12-20T05:32:03;1.10;;;1.00;;
14396;SDS011;50653;47.810;13.022;2023-12-20T05:34:30;0.90;;;0.90;;
14396;SDS011;50653;47.810;13.022;2023-12-20T05:36:56;1.43;;;1.33;;
14396;SDS011;50653;47.810;13.022;2023-12-20T05:39:22;0.83;;;0.60;;
14396;SDS011;50653;47.810;13.022;2023-12-20T05:41:48;0.70;;;0.70;;
14396;SDS011;50653;47.810;13.022;2023-12-20T05:44:14;1.13;;;0.60;;
14396;SDS011;50653;47.810;13.022;2023-12-20T05:46:39;0.77;;;0.60;;
14396;SDS011;50653;47.810;13.022;2023-12-20T05:49:05;0.73;;;0.60;;
14396;SDS011;50653;47.810;13.022;2023-12-20T05:51:32;0.60;;;0.50;;
14396;SDS011;50653;47.810;13.022;2023-12-20T05:53:58;0.60;;;0.60;;
14396;SDS011;50653;47.810;13.022;2023-12-20T05:56:24;0.70;;;0.50;;
14396;SDS011;50653;47.810;13.022;2023-12-20T05:58:50;0.50;;;0.40;;
14396;SDS011;50653;47.810;13.022;2023-12-20T06:01:15;0.73;;;0.60;;
14396;SDS011;50653;47.810;13.022;2023-12-20T06:03:44;0.57;;;0.40;;
14396;SDS011;50653;47.810;13.022;2023-12-20T06:06:11;0.50;;;0.40;;
14396;SDS011;50653;47.810;13.022;2023-12-20T06:08:38;0.50;;;0.40;;
14396;SDS011;50653;47.810;13.022;2023-12-20T06:11:04;0.60;;;0.50;;
14396;SDS011;50653;47.810;13.022;2023-12-20T06:13:30;0.50;;;0.40;;
14396;SDS011;50653;47.810;13.022;2023-12-20T06:15:56;0.80;;;0.50;;
14396;SDS011;50653;47.810;13.022;2023-12-20T06:18:22;0.60;;;0.50;;
14396;SDS011;50653;47.810;13.022;2023-12-20T06:20:49;0.77;;;0.60;;
14396;SDS011;50653;47.810;13.022;2023-12-20T06:23:15;0.90;;;0.70;;
14396;SDS011;50653;47.810;13.022;2023-12-20T06:25:40;0.80;;;0.50;;
14396;SDS011;50653;47.810;13.022;2023-12-20T06:28:07;1.00;;;0.60;;
14396;SDS011;50653;47.810;13.022;2023-12-20T06:30:35;0.90;;;0.80;;
14396;SDS011;50653;47.810;13.022;2023-12-20T06:33:01;0.97;;;0.60;;
14396;SDS011;50653;47.810;13.022;2023-12-20T06:35:27;1.40;;;0.93;;
14396;SDS011;50653;47.810;13.022;2023-12-20T06:37:53;1.00;;;0.90;;
14396;SDS011;50653;47.810;13.022;2023-12-20T06:40:19;0.70;;;0.63;;
14396;SDS011;50653;47.810;13.022;2023-12-20T06:42:45;1.10;;;1.00;;
14396;SDS011;50653;47.810;13.022;2023-12-20T06:45:11;0.90;;;0.70;;
14396;SDS011;50653;47.810;13.022;2023-12-20T06:47:37;0.90;;;0.80;;
14396;SDS011;50653;47.810;13.022;2023-12-20T06:50:03;1.30;;;0.90;;
14396;SDS011;50653;47.810;13.022;2023-12-20T06:52:29;1.00;;;0.70;;
14396;SDS011;50653;47.810;13.022;2023-12-20T06:54:55;1.00;;;0.80;;
14396;SDS011;50653;47.810;13.022;2023-12-20T06:57:21;1.23;;;1.13;;
14396;SDS011;50653;47.810;13.022;2023-12-20T06:59:46;0.73;;;0.67;;
14396;SDS011;50653;47.810;13.022;2023-12-20T07:02:12;0.90;;;0.60;;
14396;SDS011;50653;47.810;13.022;2023-12-20T07:04:41;0.80;;;0.63;;
14396;SDS011;50653;47.810;13.022;2023-12-20T07:07:07;0.63;;;0.60;;
14396;SDS011;50653;47.810;13.022;2023-12-20T07:09:33;0.70;;;0.60;;
14396;SDS011;50653;47.810;13.022;2023-12-20T07:11:58;0.77;;;0.60;;
14396;SDS011;50653;47.810;13.022;2023-12-20T07:14:24;0.80;;;0.70;;
14396;SDS011;50653;47.810;13.022;2023-12-20T07:16:50;0.90;;;0.77;;
14396;SDS011;50653;47.810;13.022;2023-12-20T07:19:16;1.13;;;0.77;;
14396;SDS011;50653;47.810;13.022;2023-12-20T07:21:41;0.90;;;0.80;;
14396;SDS011;50653;47.810;13.022;2023-12-20T07:24:07;0.70;;;0.70;;
14396;SDS011;50653;47.810;13.022;2023-12-20T07:26:33;0.80;;;0.60;;
14396;SDS011;50653;47.810;13.022;2023-12-20T07:29:03;0.90;;;0.70;;
14396;SDS011;50653;47.810;13.022;2023-12-20T07:31:29;0.80;;;0.67;;
14396;SDS011;50653;47.810;13.022;2023-12-20T07:33:55;0.70;;;0.70;;
14396;SDS011;50653;47.810;13.022;2023-12-20T07:36:21;0.80;;;0.70;;
14396;SDS011;50653;47.810;13.022;2023-12-20T07:38:47;0.60;;;0.50;;
14396;SDS011;50653;47.810;13.022;2023-12-20T07:41:13;0.80;;;0.70;;
14396;SDS011;50653;47.810;13.022;2023-12-20T07:43:41;1.50;;;0.63;;
14396;SDS011;50653;47.810;13.022;2023-12-20T07:46:07;1.00;;;0.67;;
14396;SDS011;50653;47.810;13.022;2023-12-20T07:48:37;0.90;;;0.80;;
14396;SDS011;50653;47.810;13.022;2023-12-20T07:51:03;0.90;;;0.73;;
14396;SDS011;50653;47.810;13.022;2023-12-20T07:53:29;1.27;;;0.80;;
14396;SDS011;50653;47.810;13.022;2023-12-20T07:55:55;1.07;;;0.97;;
14396;SDS011;50653;47.810;13.022;2023-12-20T07:58:21;1.33;;;1.23;;
14396;SDS011;50653;47.810;13.022;2023-12-20T08:00:47;1.60;;;1.50;;
14396;SDS011;50653;47.810;13.022;2023-12-20T08:03:13;1.10;;;1.07;;
14396;SDS011;50653;47.810;13.022;2023-12-20T08:05:38;2.23;;;2.13;;
14396;SDS011;50653;47.810;13.022;2023-12-20T08:08:07;1.47;;;1.30;;
14396;SDS011;50653;47.810;13.022;2023-12-20T08:10:33;1.23;;;1.13;;
14396;SDS011;50653;47.810;13.022;2023-12-20T08:12:59;1.40;;;1.30;;
14396;SDS011;50653;47.810;13.022;2023-12-20T08:15:24;1.87;;;1.77;;
14396;SDS011;50653;47.810;13.022;2023-12-20T08:17:50;1.23;;;0.93;;
14396;SDS011;50653;47.810;13.022;2023-12-20T08:20:16;1.60;;;1.50;;
14396;SDS011;50653;47.810;13.022;2023-12-20T08:22:42;0.70;;;0.57;;
14396;SDS011;50653;47.810;13.022;2023-12-20T08:25:08;0.70;;;0.60;;
14396;SDS011;50653;47.810;13.022;2023-12-20T08:27:36;0.90;;;0.60;;
14396;SDS011;50653;47.810;13.022;2023-12-20T08:30:05;0.77;;;0.60;;
14396;SDS011;50653;47.810;13.022;2023-12-20T08:32:33;1.07;;;0.90;;
14396;SDS011;50653;47.810;13.022;2023-12-20T08:34:59;1.17;;;0.70;;
14396;SDS011;50653;47.810;13.022;2023-12-20T08:37:25;1.27;;;0.60;;
14396;SDS011;50653;47.810;13.022;2023-12-20T08:39:50;0.70;;;0.57;;
14396;SDS011;50653;47.810;13.022;2023-12-20T08:42:16;0.60;;;0.50;;
14396;SDS011;50653;47.810;13.022;2023-12-20T08:44:42;0.80;;;0.67;;
14396;SDS011;50653;47.810;13.022;2023-12-20T08:47:07;0.50;;;0.40;;
14396;SDS011;50653;47.810;13.022;2023-12-20T08:49:33;0.80;;;0.60;;
14396;SDS011;50653;47.810;13.022;2023-12-20T08:51:59;0.83;;;0.60;;
14396;SDS011;50653;47.810;13.022;2023-12-20T08:54:25;0.73;;;0.50;;
14396;SDS011;50653;47.810;13.022;2023-12-20T08:56:50;1.03;;;0.70;;
14396;SDS011;50653;47.810;13.022;2023-12-20T08:59:16;3.77;;;1.00;;
14396;SDS011;50653;47.810;13.022;2023-12-20T09:01:43;0.77;;;0.60;;
14396;SDS011;50653;47.810;13.022;2023-12-20T09:04:09;1.57;;;0.60;;
14396;SDS011;50653;47.810;13.022;2023-12-20T09:06:35;0.77;;;0.50;;
14396;SDS011;50653;47.810;13.022;2023-12-20T09:09:00;0.77;;;0.60;;
14396;SDS011;50653;47.810;13.022;2023-12-20T09:11:26;0.60;;;0.50;;
14396;SDS011;50653;47.810;13.022;2023-12-20T09:13:52;0.70;;;0.60;;
14396;SDS011;50653;47.810;13.022;2023-12-20T09:16:17;0.60;;;0.50;;
14396;SDS011;50653;47.810;13.022;2023-12-20T09:18:43;1.10;;;0.67;;
14396;SDS011;50653;47.810;13.022;2023-12-20T09:21:09;0.60;;;0.40;;
14396;SDS011;50653;47.810;13.022;2023-12-20T09:23:34;1.00;;;0.57;;
14396;SDS011;50653;47.810;13.022;2023-12-20T09:26:02;1.90;;;0.50;;
14396;SDS011;50653;47.810;13.022;2023-12-20T09:28:27;1.80;;;0.40;;
14396;SDS011;50653;47.810;13.022;2023-12-20T09:30:53;0.57;;;0.40;;
14396;SDS011;50653;47.810;13.022;2023-12-20T09:33:19;0.60;;;0.50;;
14396;SDS011;50653;47.810;13.022;2023-12-20T09:35:45;0.90;;;0.53;;
14396;SDS011;50653;47.810;13.022;2023-12-20T09:38:10;0.67;;;0.50;;
14396;SDS011;50653;47.810;13.022;2023-12-20T09:40:38;0.73;;;0.60;;
14396;SDS011;50653;47.810;13.022;2023-12-20T09:43:13;1.20;;;0.60;;
14396;SDS011;50653;47.810;13.022;2023-12-20T09:45:41;0.60;;;0.50;;
14396;SDS011;50653;47.810;13.022;2023-12-20T09:48:10;0.80;;;0.60;;
14396;SDS011;50653;47.810;13.022;2023-12-20T09:50:37;0.70;;;0.50;;
14396;SDS011;50653;47.810;13.022;2023-12-20T09:53:02;0.67;;;0.60;;
14396;SDS011;50653;47.810;13.022;2023-12-20T09:55:34;0.90;;;0.57;;
14396;SDS011;50653;47.810;13.022;2023-12-20T09:58:01;0.60;;;0.50;;
14396;SDS011;50653;47.810;13.022;2023-12-20T10:00:27;0.70;;;0.50;;
14396;SDS011;50653;47.810;13.022;2023-12-20T10:02:56;0.60;;;0.50;;
14396;SDS011;50653;47.810;13.022;2023-12-20T10:05:26;0.60;;;0.43;;
14396;SDS011;50653;47.810;13.022;2023-12-20T10:07:53;3.50;;;0.40;;
14396;SDS011;50653;47.810;13.022;2023-12-20T10:10:19;1.57;;;0.50;;
14396;SDS011;50653;47.810;13.022;2023-12-20T10:13:00;0.50;;;0.40;;
14396;SDS011;50653;47.810;13.022;2023-12-20T10:15:30;2.70;;;0.70;;
14396;SDS011;50653;47.810;13.022;2023-12-20T10:17:57;0.70;;;0.50;;
14396;SDS011;50653;47.810;13.022;2023-12-20T10:20:23;0.90;;;0.50;;
14396;SDS011;50653;47.810;13.022;2023-12-20T10:22:49;0.63;;;0.40;;
14396;SDS011;50653;47.810;13.022;2023-12-20T10:25:15;0.50;;;0.40;;
14396;SDS011;50653;47.810;13.022;2023-12-20T10:27:40;0.50;;;0.40;;
14396;SDS011;50653;47.810;13.022;2023-12-20T10:30:06;1.17;;;0.50;;
14396;SDS011;50653;47.810;13.022;2023-12-20T10:32:32;0.60;;;0.40;;
14396;SDS011;50653;47.810;13.022;2023-12-20T10:34:58;0.70;;;0.40;;
14396;SDS011;50653;47.810;13.022;2023-12-20T10:37:24;0.60;;;0.50;;
14396;SDS011;50653;47.810;13.022;2023-12-20T10:39:51;0.70;;;0.50;;
14396;SDS011;50653;47.810;13.022;2023-12-20T10:42:21;1.03;;;0.43;;
14396;SDS011;50653;47.810;13.022;2023-12-20T10:44:48;0.60;;;0.47;;
14396;SDS011;50653;47.810;13.022;2023-12-20T10:47:15;0.93;;;0.40;;
14396;SDS011;50653;47.810;13.022;2023-12-20T10:49:42;1.00;;;0.50;;
14396;SDS011;50653;47.810;13.022;2023-12-20T10:52:09;0.50;;;0.40;;
14396;SDS011;50653;47.810;13.022;2023-12-20T10:54:38;1.00;;;0.47;;
14396;SDS011;50653;47.810;13.022;2023-12-20T10:57:05;0.50;;;0.30;;
14396;SDS011;50653;47.810;13.022;2023-12-20T10:59:33;0.60;;;0.40;;
14396;SDS011;50653;47.810;13.022;2023-12-20T11:02:02;0.60;;;0.40;;
14396;SDS011;50653;47.810;13.022;2023-12-20T11:04:37;0.50;;;0.40;;
14396;SDS011;50653;47.810;13.022;2023-12-20T11:07:29;0.50;;;0.40;;
14396;SDS011;50653;47.810;13.022;2023-12-20T11:10:07;0.50;;;0.40;;
14396;SDS011;50653;47.810;13.022;2023-12-20T11:12:44;0.50;;;0.30;;
14396;SDS011;50653;47.810;13.022;2023-12-20T11:15:16;0.80;;;0.50;;
14396;SDS011;50653;47.810;13.022;2023-12-20T11:17:44;0.60;;;0.40;;
14396;SDS011;50653;47.810;13.022;2023-12-20T11:20:11;0.60;;;0.40;;
14396;SDS011;50653;47.810;13.022;2023-12-20T11:22:38;0.50;;;0.33;;
14396;SDS011;50653;47.810;13.022;2023-12-20T11:25:10;2.20;;;0.40;;
14396;SDS011;50653;47.810;13.022;2023-12-20T11:27:36;0.60;;;0.40;;
14396;SDS011;50653;47.810;13.022;2023-12-20T11:30:07;1.00;;;0.40;;
14396;SDS011;50653;47.810;13.022;2023-12-20T11:32:34;0.53;;;0.53;;
14396;SDS011;50653;47.810;13.022;2023-12-20T11:35:16;0.60;;;0.40;;
14396;SDS011;50653;47.810;13.022;2023-12-20T11:37:44;0.50;;;0.40;;
14396;SDS011;50653;47.810;13.022;2023-12-20T11:40:16;0.70;;;0.50;;
14396;SDS011;50653;47.810;13.022;2023-12-20T11:42:43;0.50;;;0.40;;
14396;SDS011;50653;47.810;13.022;2023-12-20T11:45:14;1.07;;;0.60;;
14396;SDS011;50653;47.810;13.022;2023-12-20T11:47:44;1.10;;;0.90;;
14396;SDS011;50653;47.810;13.022;2023-12-20T11:50:11;1.43;;;0.80;;
14396;SDS011;50653;47.810;13.022;2023-12-20T11:52:37;0.90;;;0.77;;
14396;SDS011;50653;47.810;13.022;2023-12-20T11:55:04;0.90;;;0.67;;
14396;SDS011;50653;47.810;13.022;2023-12-20T11:57:30;0.97;;;0.60;;
14396;SDS011;50653;47.810;13.022;2023-12-20T11:59:57;2.57;;;0.70;;
14396;SDS011;50653;47.810;13.022;2023-12-20T12:02:23;0.60;;;0.50;;
14396;SDS011;50653;47.810;13.022;2023-12-20T12:04:49;0.70;;;0.50;;
14396;SDS011;50653;47.810;13.022;2023-12-20T12:07:16;0.60;;;0.40;;
14396;SDS011;50653;47.810;13.022;2023-12-20T12:09:42;0.60;;;0.40;;
14396;SDS011;50653;47.810;13.022;2023-12-20T12:12:08;0.70;;;0.70;;
14396;SDS011;50653;47.810;13.022;2023-12-20T12:14:35;0.53;;;0.40;;
14396;SDS011;50653;47.810;13.022;2023-12-20T12:17:02;0.60;;;0.40;;
14396;SDS011;50653;47.810;13.022;2023-12-20T12:19:28;0.60;;;0.50;;
14396;SDS011;50653;47.810;13.022;2023-12-20T12:22:07;0.50;;;0.40;;
14396;SDS011;50653;47.810;13.022;2023-12-20T12:24:37;0.60;;;0.47;;
14396;SDS011;50653;47.810;13.022;2023-12-20T12:27:05;0.60;;;0.40;;
14396;SDS011;50653;47.810;13.022;2023-12-20T12:29:32;0.60;;;0.53;;
14396;SDS011;50653;47.810;13.022;2023-12-20T12:31:59;0.50;;;0.33;;
14396;SDS011;50653;47.810;13.022;2023-12-20T12:34:27;0.77;;;0.40;;
14396;SDS011;50653;47.810;13.022;2023-12-20T12:36:53;0.70;;;0.40;;
14396;SDS011;50653;47.810;13.022;2023-12-20T12:39:19;0.53;;;0.43;;
14396;SDS011;50653;47.810;13.022;2023-12-20T12:41:45;0.50;;;0.40;;
14396;SDS011;50653;47.810;13.022;2023-12-20T12:44:11;0.50;;;0.40;;
14396;SDS011;50653;47.810;13.022;2023-12-20T12:46:36;0.90;;;0.40;;
14396;SDS011;50653;47.810;13.022;2023-12-20T12:49:02;1.23;;;0.40;;
14396;SDS011;50653;47.810;13.022;2023-12-20T12:51:28;0.50;;;0.40;;
14396;SDS011;50653;47.810;13.022;2023-12-20T12:53:53;1.37;;;0.40;;
14396;SDS011;50653;47.810;13.022;2023-12-20T12:56:19;0.73;;;0.43;;
14396;SDS011;50653;47.810;13.022;2023-12-20T12:58:46;0.60;;;0.40;;
14396;SDS011;50653;47.810;13.022;2023-12-20T13:01:12;0.50;;;0.40;;
14396;SDS011;50653;47.810;13.022;2023-12-20T13:03:37;0.50;;;0.40;;
14396;SDS011;50653;47.810;13.022;2023-12-20T13:06:03;0.80;;;0.50;;
14396;SDS011;50653;47.810;13.022;2023-12-20T13:08:31;0.50;;;0.40;;
14396;SDS011;50653;47.810;13.022;2023-12-20T13:10:57;0.60;;;0.40;;
14396;SDS011;50653;47.810;13.022;2023-12-20T13:13:26;1.20;;;0.40;;
14396;SDS011;50653;47.810;13.022;2023-12-20T13:15:52;0.57;;;0.40;;
14396;SDS011;50653;47.810;13.022;2023-12-20T13:18:20;0.50;;;0.40;;
14396;SDS011;50653;47.810;13.022;2023-12-20T13:20:46;0.60;;;0.40;;
14396;SDS011;50653;47.810;13.022;2023-12-20T13:23:13;0.77;;;0.43;;
14396;SDS011;50653;47.810;13.022;2023-12-20T13:25:39;0.60;;;0.40;;
14396;SDS011;50653;47.810;13.022;2023-12-20T13:28:05;0.80;;;0.50;;
14396;SDS011;50653;47.810;13.022;2023-12-20T13:30:31;0.50;;;0.40;;
14396;SDS011;50653;47.810;13.022;2023-12-20T13:32:57;0.60;;;0.40;;
14396;SDS011;50653;47.810;13.022;2023-12-20T13:35:22;0.50;;;0.40;;
14396;SDS011;50653;47.810;13.022;2023-12-20T13:37:48;0.50;;;0.40;;
14396;SDS011;50653;47.810;13.022;2023-12-20T13:40:14;0.60;;;0.50;;
14396;SDS011;50653;47.810;13.022;2023-12-20T13:42:40;0.50;;;0.30;;
14396;SDS011;50653;47.810;13.022;2023-12-20T13:45:06;0.50;;;0.40;;
14396;SDS011;50653;47.810;13.022;2023-12-20T13:47:32;0.67;;;0.40;;
14396;SDS011;50653;47.810;13.022;2023-12-20T13:49:58;0.70;;;0.40;;
14396;SDS011;50653;47.810;13.022;2023-12-20T13:52:24;0.60;;;0.40;;
14396;SDS011;50653;47.810;13.022;2023-12-20T13:54:50;0.57;;;0.47;;
14396;SDS011;50653;47.810;13.022;2023-12-20T13:57:15;0.67;;;0.50;;
14396;SDS011;50653;47.810;13.022;2023-12-20T13:59:41;0.60;;;0.50;;
14396;SDS011;50653;47.810;13.022;2023-12-20T14:02:07;0.50;;;0.40;;
14396;SDS011;50653;47.810;13.022;2023-12-20T14:04:32;0.70;;;0.60;;
14396;SDS011;50653;47.810;13.022;2023-12-20T14:06:58;1.33;;;0.63;;
14396;SDS011;50653;47.810;13.022;2023-12-20T14:09:24;1.50;;;0.77;;
14396;SDS011;50653;47.810;13.022;2023-12-20T14:11:50;1.80;;;1.70;;
14396;SDS011;50653;47.810;13.022;2023-12-20T14:14:15;1.93;;;1.83;;
14396;SDS011;50653;47.810;13.022;2023-12-20T14:16:41;0.90;;;0.90;;
14396;SDS011;50653;47.810;13.022;2023-12-20T14:19:10;1.90;;;1.80;;
14396;SDS011;50653;47.810;13.022;2023-12-20T14:21:36;1.30;;;1.20;;
14396;SDS011;50653;47.810;13.022;2023-12-20T14:24:02;1.73;;;1.63;;
14396;SDS011;50653;47.810;13.022;2023-12-20T14:26:29;2.03;;;1.10;;
14396;SDS011;50653;47.810;13.022;2023-12-20T14:28:56;1.60;;;1.50;;